sensor_id;sensor_type;location;lat;lon;timestamp;P1;durP1;ratioP1;P2;durP2;ratioP2
65377;SDS011;51982;51.042;13.806;2022-12-01T00:00:59;30.95;;;12.55;;
65377;SDS011;51982;51.042;13.806;2022-12-01T00:03:25;33.63;;;13.23;;
65377;SDS011;51982;51.042;13.806;2022-12-01T00:05:56;33.30;;;12.05;;
65377;SDS011;51982;51.042;13.806;2022-12-01T00:08:26;32.08;;;12.50;;
65377;SDS011;51982;51.042;13.806;2022-12-01T00:10:52;26.98;;;10.90;;
65377;SDS011;51982;51.042;13.806;2022-12-01T00:13:17;29.75;;;12.82;;
65377;SDS011;51982;51.042;13.806;2022-12-01T00:15:42;36.92;;;13.52;;
65377;SDS011;51982;51.042;13.806;2022-12-01T00:18:08;37.53;;;12.80;;
65377;SDS011;51982;51.042;13.806;2022-12-01T00:20:34;35.28;;;12.65;;
65377;SDS011;51982;51.042;13.806;2022-12-01T00:23:00;38.22;;;13.02;;
65377;SDS011;51982;51.042;13.806;2022-12-01T00:25:25;34.35;;;13.85;;
65377;SDS011;51982;51.042;13.806;2022-12-01T00:27:51;38.60;;;12.88;;
65377;SDS011;51982;51.042;13.806;2022-12-01T00:30:18;38.78;;;13.80;;
65377;SDS011;51982;51.042;13.806;2022-12-01T00:32:44;33.55;;;11.38;;
65377;SDS011;51982;51.042;13.806;2022-12-01T00:35:11;32.17;;;12.05;;
65377;SDS011;51982;51.042;13.806;2022-12-01T00:37:37;31.15;;;12.15;;
65377;SDS011;51982;51.042;13.806;2022-12-01T00:40:03;33.80;;;11.90;;
65377;SDS011;51982;51.042;13.806;2022-12-01T00:42:29;31.25;;;11.30;;
65377;SDS011;51982;51.042;13.806;2022-12-01T00:44:54;29.60;;;11.63;;
65377;SDS011;51982;51.042;13.806;2022-12-01T00:47:20;28.45;;;11.30;;
65377;SDS011;51982;51.042;13.806;2022-12-01T00:49:45;25.50;;;9.73;;
65377;SDS011;51982;51.042;13.806;2022-12-01T00:52:11;23.13;;;8.55;;
65377;SDS011;51982;51.042;13.806;2022-12-01T00:54:37;33.92;;;12.30;;
65377;SDS011;51982;51.042;13.806;2022-12-01T00:57:03;31.08;;;11.30;;
65377;SDS011;51982;51.042;13.806;2022-12-01T00:59:32;27.45;;;10.60;;
65377;SDS011;51982;51.042;13.806;2022-12-01T01:01:57;32.58;;;12.18;;
65377;SDS011;51982;51.042;13.806;2022-12-01T01:04:23;31.77;;;11.70;;
65377;SDS011;51982;51.042;13.806;2022-12-01T01:06:48;32.95;;;12.73;;
65377;SDS011;51982;51.042;13.806;2022-12-01T01:09:14;23.52;;;9.65;;
65377;SDS011;51982;51.042;13.806;2022-12-01T01:11:40;27.70;;;10.23;;
65377;SDS011;51982;51.042;13.806;2022-12-01T01:14:05;30.55;;;10.98;;
65377;SDS011;51982;51.042;13.806;2022-12-01T01:16:31;29.10;;;11.35;;
65377;SDS011;51982;51.042;13.806;2022-12-01T01:18:56;24.67;;;10.55;;
65377;SDS011;51982;51.042;13.806;2022-12-01T01:21:22;26.88;;;11.52;;
65377;SDS011;51982;51.042;13.806;2022-12-01T01:23:48;24.77;;;10.73;;
65377;SDS011;51982;51.042;13.806;2022-12-01T01:26:19;34.35;;;12.75;;
65377;SDS011;51982;51.042;13.806;2022-12-01T01:28:47;32.95;;;12.20;;
65377;SDS011;51982;51.042;13.806;2022-12-01T01:31:14;32.25;;;10.85;;
65377;SDS011;51982;51.042;13.806;2022-12-01T01:33:41;32.75;;;12.48;;
65377;SDS011;51982;51.042;13.806;2022-12-01T01:36:06;34.65;;;12.25;;
65377;SDS011;51982;51.042;13.806;2022-12-01T01:38:33;32.75;;;12.75;;
65377;SDS011;51982;51.042;13.806;2022-12-01T01:40:58;33.55;;;12.50;;
65377;SDS011;51982;51.042;13.806;2022-12-01T01:43:37;39.92;;;13.65;;
65377;SDS011;51982;51.042;13.806;2022-12-01T01:46:19;30.25;;;11.93;;
65377;SDS011;51982;51.042;13.806;2022-12-01T01:48:46;34.70;;;12.60;;
65377;SDS011;51982;51.042;13.806;2022-12-01T01:51:14;36.63;;;13.57;;
65377;SDS011;51982;51.042;13.806;2022-12-01T01:53:44;30.80;;;10.82;;
65377;SDS011;51982;51.042;13.806;2022-12-01T01:56:10;31.60;;;11.95;;
65377;SDS011;51982;51.042;13.806;2022-12-01T01:58:36;33.75;;;12.20;;
65377;SDS011;51982;51.042;13.806;2022-12-01T02:01:03;34.55;;;12.07;;
65377;SDS011;51982;51.042;13.806;2022-12-01T02:03:29;34.28;;;12.20;;
65377;SDS011;51982;51.042;13.806;2022-12-01T02:05:55;36.22;;;12.88;;
65377;SDS011;51982;51.042;13.806;2022-12-01T02:08:21;33.83;;;11.95;;
65377;SDS011;51982;51.042;13.806;2022-12-01T02:10:55;31.17;;;12.07;;
65377;SDS011;51982;51.042;13.806;2022-12-01T02:16:41;33.83;;;12.50;;
65377;SDS011;51982;51.042;13.806;2022-12-01T02:25:20;35.03;;;11.90;;
65377;SDS011;51982;51.042;13.806;2022-12-01T02:31:17;28.13;;;11.15;;
65377;SDS011;51982;51.042;13.806;2022-12-01T02:33:52;32.00;;;11.20;;
65377;SDS011;51982;51.042;13.806;2022-12-01T02:38:55;33.95;;;11.18;;
65377;SDS011;51982;51.042;13.806;2022-12-01T02:41:31;41.63;;;11.98;;
65377;SDS011;51982;51.042;13.806;2022-12-01T02:44:04;36.05;;;12.45;;
65377;SDS011;51982;51.042;13.806;2022-12-01T02:47:11;38.80;;;11.90;;
65377;SDS011;51982;51.042;13.806;2022-12-01T02:49:40;38.80;;;12.05;;
65377;SDS011;51982;51.042;13.806;2022-12-01T02:52:11;40.30;;;12.55;;
65377;SDS011;51982;51.042;13.806;2022-12-01T02:54:39;37.80;;;11.95;;
65377;SDS011;51982;51.042;13.806;2022-12-01T02:57:08;36.72;;;12.88;;
65377;SDS011;51982;51.042;13.806;2022-12-01T02:59:35;32.10;;;11.75;;
65377;SDS011;51982;51.042;13.806;2022-12-01T03:10:53;29.17;;;10.32;;
65377;SDS011;51982;51.042;13.806;2022-12-01T03:13:37;21.65;;;7.25;;
65377;SDS011;51982;51.042;13.806;2022-12-01T03:16:21;35.28;;;11.73;;
65377;SDS011;51982;51.042;13.806;2022-12-01T03:18:55;35.38;;;11.25;;
65377;SDS011;51982;51.042;13.806;2022-12-01T03:21:34;38.85;;;12.15;;
65377;SDS011;51982;51.042;13.806;2022-12-01T03:24:16;38.60;;;13.43;;
65377;SDS011;51982;51.042;13.806;2022-12-01T03:26:47;39.05;;;12.82;;
65377;SDS011;51982;51.042;13.806;2022-12-01T03:29:22;40.95;;;12.68;;
65377;SDS011;51982;51.042;13.806;2022-12-01T03:31:52;33.83;;;10.43;;
65377;SDS011;51982;51.042;13.806;2022-12-01T03:34:22;30.42;;;10.63;;
65377;SDS011;51982;51.042;13.806;2022-12-01T03:39:24;42.38;;;12.35;;
65377;SDS011;51982;51.042;13.806;2022-12-01T03:41:55;37.40;;;11.50;;
65377;SDS011;51982;51.042;13.806;2022-12-01T03:44:26;39.08;;;13.02;;
65377;SDS011;51982;51.042;13.806;2022-12-01T03:47:03;38.83;;;11.77;;
65377;SDS011;51982;51.042;13.806;2022-12-01T03:49:41;37.13;;;11.57;;
65377;SDS011;51982;51.042;13.806;2022-12-01T03:52:09;49.40;;;13.27;;
65377;SDS011;51982;51.042;13.806;2022-12-01T03:57:39;34.03;;;11.18;;
65377;SDS011;51982;51.042;13.806;2022-12-01T04:00:08;47.17;;;12.93;;
65377;SDS011;51982;51.042;13.806;2022-12-01T04:02:35;50.38;;;13.45;;
65377;SDS011;51982;51.042;13.806;2022-12-01T04:05:01;44.17;;;12.55;;
65377;SDS011;51982;51.042;13.806;2022-12-01T04:07:29;43.13;;;13.30;;
65377;SDS011;51982;51.042;13.806;2022-12-01T04:09:54;53.00;;;14.57;;
65377;SDS011;51982;51.042;13.806;2022-12-01T04:12:19;38.10;;;12.13;;
65377;SDS011;51982;51.042;13.806;2022-12-01T04:14:56;46.72;;;13.13;;
65377;SDS011;51982;51.042;13.806;2022-12-01T04:17:22;47.30;;;13.55;;
65377;SDS011;51982;51.042;13.806;2022-12-01T04:19:48;46.58;;;14.10;;
65377;SDS011;51982;51.042;13.806;2022-12-01T04:22:14;37.67;;;11.52;;
65377;SDS011;51982;51.042;13.806;2022-12-01T04:24:39;47.75;;;14.05;;
65377;SDS011;51982;51.042;13.806;2022-12-01T04:27:04;47.83;;;12.88;;
65377;SDS011;51982;51.042;13.806;2022-12-01T04:29:29;41.95;;;12.13;;
65377;SDS011;51982;51.042;13.806;2022-12-01T04:31:55;50.33;;;14.85;;
65377;SDS011;51982;51.042;13.806;2022-12-01T04:34:20;39.05;;;11.45;;
65377;SDS011;51982;51.042;13.806;2022-12-01T04:36:45;36.65;;;12.38;;
65377;SDS011;51982;51.042;13.806;2022-12-01T04:39:11;34.72;;;11.85;;
65377;SDS011;51982;51.042;13.806;2022-12-01T04:41:36;37.78;;;11.70;;
65377;SDS011;51982;51.042;13.806;2022-12-01T04:44:01;43.75;;;13.60;;
65377;SDS011;51982;51.042;13.806;2022-12-01T04:46:26;47.33;;;14.05;;
65377;SDS011;51982;51.042;13.806;2022-12-01T04:48:52;50.00;;;14.82;;
65377;SDS011;51982;51.042;13.806;2022-12-01T04:51:17;40.53;;;11.38;;
65377;SDS011;51982;51.042;13.806;2022-12-01T04:53:43;43.33;;;12.43;;
65377;SDS011;51982;51.042;13.806;2022-12-01T04:56:08;52.58;;;13.63;;
65377;SDS011;51982;51.042;13.806;2022-12-01T04:58:35;38.10;;;10.95;;
65377;SDS011;51982;51.042;13.806;2022-12-01T05:01:02;49.92;;;13.68;;
65377;SDS011;51982;51.042;13.806;2022-12-01T05:03:28;39.13;;;12.55;;
65377;SDS011;51982;51.042;13.806;2022-12-01T05:06:03;61.33;;;15.63;;
65377;SDS011;51982;51.042;13.806;2022-12-01T05:08:31;40.00;;;13.65;;
65377;SDS011;51982;51.042;13.806;2022-12-01T05:10:56;40.45;;;12.80;;
65377;SDS011;51982;51.042;13.806;2022-12-01T05:13:22;47.28;;;13.75;;
65377;SDS011;51982;51.042;13.806;2022-12-01T05:15:48;57.08;;;13.38;;
65377;SDS011;51982;51.042;13.806;2022-12-01T05:18:13;52.50;;;14.50;;
65377;SDS011;51982;51.042;13.806;2022-12-01T05:20:38;43.42;;;11.73;;
65377;SDS011;51982;51.042;13.806;2022-12-01T05:23:23;56.58;;;15.38;;
65377;SDS011;51982;51.042;13.806;2022-12-01T05:25:49;63.47;;;15.82;;
65377;SDS011;51982;51.042;13.806;2022-12-01T05:28:14;39.45;;;12.07;;
65377;SDS011;51982;51.042;13.806;2022-12-01T05:30:40;55.22;;;15.23;;
65377;SDS011;51982;51.042;13.806;2022-12-01T05:33:05;47.78;;;13.57;;
65377;SDS011;51982;51.042;13.806;2022-12-01T05:35:31;49.95;;;13.23;;
65377;SDS011;51982;51.042;13.806;2022-12-01T05:37:57;40.60;;;12.93;;
65377;SDS011;51982;51.042;13.806;2022-12-01T05:40:22;38.85;;;12.23;;
65377;SDS011;51982;51.042;13.806;2022-12-01T05:42:48;48.88;;;14.65;;
65377;SDS011;51982;51.042;13.806;2022-12-01T05:45:13;46.15;;;13.32;;
65377;SDS011;51982;51.042;13.806;2022-12-01T05:47:38;51.92;;;14.70;;
65377;SDS011;51982;51.042;13.806;2022-12-01T05:50:04;44.67;;;12.82;;
65377;SDS011;51982;51.042;13.806;2022-12-01T05:52:31;45.83;;;12.85;;
65377;SDS011;51982;51.042;13.806;2022-12-01T05:54:58;44.85;;;14.27;;
65377;SDS011;51982;51.042;13.806;2022-12-01T05:57:23;55.72;;;14.43;;
65377;SDS011;51982;51.042;13.806;2022-12-01T05:59:48;57.30;;;14.38;;
65377;SDS011;51982;51.042;13.806;2022-12-01T06:02:13;48.67;;;13.98;;
65377;SDS011;51982;51.042;13.806;2022-12-01T06:04:39;49.97;;;14.30;;
65377;SDS011;51982;51.042;13.806;2022-12-01T06:07:04;59.17;;;14.60;;
65377;SDS011;51982;51.042;13.806;2022-12-01T06:09:29;67.30;;;16.02;;
65377;SDS011;51982;51.042;13.806;2022-12-01T06:11:55;47.78;;;14.13;;
65377;SDS011;51982;51.042;13.806;2022-12-01T06:14:20;55.50;;;18.27;;
65377;SDS011;51982;51.042;13.806;2022-12-01T06:16:45;41.20;;;11.95;;
65377;SDS011;51982;51.042;13.806;2022-12-01T06:19:23;55.40;;;14.60;;
65377;SDS011;51982;51.042;13.806;2022-12-01T06:21:48;34.17;;;10.02;;
65377;SDS011;51982;51.042;13.806;2022-12-01T06:24:14;49.45;;;14.13;;
65377;SDS011;51982;51.042;13.806;2022-12-01T06:26:39;49.45;;;14.02;;
65377;SDS011;51982;51.042;13.806;2022-12-01T06:29:08;57.10;;;14.38;;
65377;SDS011;51982;51.042;13.806;2022-12-01T06:31:34;54.78;;;15.38;;
65377;SDS011;51982;51.042;13.806;2022-12-01T06:33:59;42.30;;;12.68;;
65377;SDS011;51982;51.042;13.806;2022-12-01T06:36:25;57.53;;;16.00;;
65377;SDS011;51982;51.042;13.806;2022-12-01T06:38:50;39.92;;;13.75;;
65377;SDS011;51982;51.042;13.806;2022-12-01T06:41:15;48.15;;;15.02;;
65377;SDS011;51982;51.042;13.806;2022-12-01T06:43:40;48.33;;;13.18;;
65377;SDS011;51982;51.042;13.806;2022-12-01T06:46:06;47.80;;;13.50;;
65377;SDS011;51982;51.042;13.806;2022-12-01T06:48:31;56.20;;;14.43;;
65377;SDS011;51982;51.042;13.806;2022-12-01T06:50:57;47.25;;;14.38;;
65377;SDS011;51982;51.042;13.806;2022-12-01T06:53:23;56.97;;;15.43;;
65377;SDS011;51982;51.042;13.806;2022-12-01T06:55:51;61.13;;;16.05;;
65377;SDS011;51982;51.042;13.806;2022-12-01T06:58:16;54.58;;;15.75;;
65377;SDS011;51982;51.042;13.806;2022-12-01T07:00:42;60.53;;;14.85;;
65377;SDS011;51982;51.042;13.806;2022-12-01T07:03:07;61.10;;;16.85;;
65377;SDS011;51982;51.042;13.806;2022-12-01T07:05:33;66.38;;;16.58;;
65377;SDS011;51982;51.042;13.806;2022-12-01T07:07:58;49.42;;;13.98;;
65377;SDS011;51982;51.042;13.806;2022-12-01T07:10:24;60.97;;;16.75;;
65377;SDS011;51982;51.042;13.806;2022-12-01T07:12:49;53.90;;;15.23;;
65377;SDS011;51982;51.042;13.806;2022-12-01T07:15:14;54.70;;;16.50;;
65377;SDS011;51982;51.042;13.806;2022-12-01T07:17:40;50.28;;;13.52;;
65377;SDS011;51982;51.042;13.806;2022-12-01T07:20:05;62.22;;;16.83;;
65377;SDS011;51982;51.042;13.806;2022-12-01T07:22:30;58.72;;;16.98;;
65377;SDS011;51982;51.042;13.806;2022-12-01T07:24:56;54.70;;;16.67;;
65377;SDS011;51982;51.042;13.806;2022-12-01T07:27:21;55.83;;;15.48;;
65377;SDS011;51982;51.042;13.806;2022-12-01T07:29:46;34.08;;;10.57;;
65377;SDS011;51982;51.042;13.806;2022-12-01T07:32:12;49.55;;;15.15;;
65377;SDS011;51982;51.042;13.806;2022-12-01T07:34:37;39.25;;;13.00;;
65377;SDS011;51982;51.042;13.806;2022-12-01T07:37:02;44.88;;;14.85;;
65377;SDS011;51982;51.042;13.806;2022-12-01T07:39:27;47.33;;;15.88;;
65377;SDS011;51982;51.042;13.806;2022-12-01T07:41:53;44.53;;;14.60;;
65377;SDS011;51982;51.042;13.806;2022-12-01T07:44:18;43.65;;;13.15;;
65377;SDS011;51982;51.042;13.806;2022-12-01T07:46:43;56.65;;;15.63;;
65377;SDS011;51982;51.042;13.806;2022-12-01T07:49:08;52.42;;;15.35;;
65377;SDS011;51982;51.042;13.806;2022-12-01T07:51:35;65.95;;;16.58;;
65377;SDS011;51982;51.042;13.806;2022-12-01T07:54:01;42.65;;;13.57;;
65377;SDS011;51982;51.042;13.806;2022-12-01T07:56:28;55.53;;;17.10;;
65377;SDS011;51982;51.042;13.806;2022-12-01T07:58:54;42.33;;;14.38;;
65377;SDS011;51982;51.042;13.806;2022-12-01T08:01:20;44.15;;;13.32;;
65377;SDS011;51982;51.042;13.806;2022-12-01T08:03:47;52.17;;;16.45;;
65377;SDS011;51982;51.042;13.806;2022-12-01T08:06:13;47.97;;;16.27;;
65377;SDS011;51982;51.042;13.806;2022-12-01T08:08:40;61.55;;;17.13;;
65377;SDS011;51982;51.042;13.806;2022-12-01T08:11:08;46.60;;;12.10;;
65377;SDS011;51982;51.042;13.806;2022-12-01T08:13:35;61.03;;;17.45;;
65377;SDS011;51982;51.042;13.806;2022-12-01T08:16:04;57.20;;;17.13;;
65377;SDS011;51982;51.042;13.806;2022-12-01T08:18:32;53.30;;;17.15;;
65377;SDS011;51982;51.042;13.806;2022-12-01T08:21:04;46.58;;;14.65;;
65377;SDS011;51982;51.042;13.806;2022-12-01T08:23:31;56.03;;;16.08;;
65377;SDS011;51982;51.042;13.806;2022-12-01T08:26:00;66.40;;;18.45;;
65377;SDS011;51982;51.042;13.806;2022-12-01T08:28:29;72.63;;;18.73;;
65377;SDS011;51982;51.042;13.806;2022-12-01T08:30:55;63.08;;;18.50;;
65377;SDS011;51982;51.042;13.806;2022-12-01T08:33:20;62.10;;;18.23;;
65377;SDS011;51982;51.042;13.806;2022-12-01T08:35:46;62.15;;;18.65;;
65377;SDS011;51982;51.042;13.806;2022-12-01T08:38:11;71.93;;;18.08;;
65377;SDS011;51982;51.042;13.806;2022-12-01T08:40:36;64.85;;;18.73;;
65377;SDS011;51982;51.042;13.806;2022-12-01T08:43:02;61.60;;;18.00;;
65377;SDS011;51982;51.042;13.806;2022-12-01T08:45:28;48.50;;;16.00;;
65377;SDS011;51982;51.042;13.806;2022-12-01T08:47:53;59.50;;;18.10;;
65377;SDS011;51982;51.042;13.806;2022-12-01T08:50:22;22.50;;;7.93;;
65377;SDS011;51982;51.042;13.806;2022-12-01T08:52:51;53.03;;;16.67;;
65377;SDS011;51982;51.042;13.806;2022-12-01T08:55:16;56.72;;;17.98;;
65377;SDS011;51982;51.042;13.806;2022-12-01T08:57:42;59.15;;;18.30;;
65377;SDS011;51982;51.042;13.806;2022-12-01T09:00:07;76.15;;;20.20;;
65377;SDS011;51982;51.042;13.806;2022-12-01T09:02:34;47.13;;;14.73;;
65377;SDS011;51982;51.042;13.806;2022-12-01T09:04:59;45.20;;;15.00;;
65377;SDS011;51982;51.042;13.806;2022-12-01T09:07:24;64.00;;;18.85;;
65377;SDS011;51982;51.042;13.806;2022-12-01T09:09:49;69.53;;;18.10;;
65377;SDS011;51982;51.042;13.806;2022-12-01T09:12:15;60.60;;;17.83;;
65377;SDS011;51982;51.042;13.806;2022-12-01T09:14:41;64.72;;;19.63;;
65377;SDS011;51982;51.042;13.806;2022-12-01T09:17:09;54.22;;;14.77;;
65377;SDS011;51982;51.042;13.806;2022-12-01T09:19:34;88.43;;;20.48;;
65377;SDS011;51982;51.042;13.806;2022-12-01T09:22:00;49.20;;;15.45;;
65377;SDS011;51982;51.042;13.806;2022-12-01T09:24:26;80.35;;;21.23;;
65377;SDS011;51982;51.042;13.806;2022-12-01T09:26:54;80.10;;;20.55;;
65377;SDS011;51982;51.042;13.806;2022-12-01T09:29:21;71.63;;;19.52;;
65377;SDS011;51982;51.042;13.806;2022-12-01T09:31:46;76.80;;;21.13;;
65377;SDS011;51982;51.042;13.806;2022-12-01T09:34:13;75.70;;;20.10;;
65377;SDS011;51982;51.042;13.806;2022-12-01T09:36:40;23.38;;;9.50;;
65377;SDS011;51982;51.042;13.806;2022-12-01T09:39:13;62.63;;;20.45;;
65377;SDS011;51982;51.042;13.806;2022-12-01T09:41:42;64.93;;;18.73;;
65377;SDS011;51982;51.042;13.806;2022-12-01T09:44:22;62.75;;;18.67;;
65377;SDS011;51982;51.042;13.806;2022-12-01T09:47:13;59.05;;;16.95;;
65377;SDS011;51982;51.042;13.806;2022-12-01T09:49:49;50.47;;;16.77;;
65377;SDS011;51982;51.042;13.806;2022-12-01T09:52:16;58.65;;;17.60;;
65377;SDS011;51982;51.042;13.806;2022-12-01T09:54:43;66.75;;;18.77;;
65377;SDS011;51982;51.042;13.806;2022-12-01T09:59:56;70.22;;;19.48;;
65377;SDS011;51982;51.042;13.806;2022-12-01T10:02:29;65.72;;;19.55;;
65377;SDS011;51982;51.042;13.806;2022-12-01T10:05:00;67.57;;;21.35;;
65377;SDS011;51982;51.042;13.806;2022-12-01T10:07:30;63.47;;;18.42;;
65377;SDS011;51982;51.042;13.806;2022-12-01T10:10:11;60.38;;;18.58;;
65377;SDS011;51982;51.042;13.806;2022-12-01T10:12:40;64.22;;;19.08;;
65377;SDS011;51982;51.042;13.806;2022-12-01T10:20:34;63.90;;;18.25;;
65377;SDS011;51982;51.042;13.806;2022-12-01T10:23:14;58.53;;;18.52;;
65377;SDS011;51982;51.042;13.806;2022-12-01T10:26:10;57.30;;;18.08;;
65377;SDS011;51982;51.042;13.806;2022-12-01T10:28:48;26.80;;;10.40;;
65377;SDS011;51982;51.042;13.806;2022-12-01T10:31:19;45.40;;;15.82;;
65377;SDS011;51982;51.042;13.806;2022-12-01T10:34:04;67.85;;;19.05;;
65377;SDS011;51982;51.042;13.806;2022-12-01T10:36:32;53.22;;;16.20;;
65377;SDS011;51982;51.042;13.806;2022-12-01T10:38:59;53.53;;;16.02;;
65377;SDS011;51982;51.042;13.806;2022-12-01T10:41:26;61.83;;;16.83;;
65377;SDS011;51982;51.042;13.806;2022-12-01T10:43:55;59.63;;;18.63;;
65377;SDS011;51982;51.042;13.806;2022-12-01T10:46:26;52.60;;;16.73;;
65377;SDS011;51982;51.042;13.806;2022-12-01T10:48:58;49.72;;;17.17;;
65377;SDS011;51982;51.042;13.806;2022-12-01T10:51:25;60.65;;;19.38;;
65377;SDS011;51982;51.042;13.806;2022-12-01T10:53:58;47.65;;;15.20;;
65377;SDS011;51982;51.042;13.806;2022-12-01T10:56:33;54.88;;;18.58;;
65377;SDS011;51982;51.042;13.806;2022-12-01T10:59:03;53.70;;;17.20;;
65377;SDS011;51982;51.042;13.806;2022-12-01T11:01:46;64.15;;;19.85;;
65377;SDS011;51982;51.042;13.806;2022-12-01T11:07:06;65.63;;;17.67;;
65377;SDS011;51982;51.042;13.806;2022-12-01T11:10:02;54.13;;;18.40;;
65377;SDS011;51982;51.042;13.806;2022-12-01T11:12:42;55.53;;;19.70;;
65377;SDS011;51982;51.042;13.806;2022-12-01T11:15:17;54.05;;;17.30;;
65377;SDS011;51982;51.042;13.806;2022-12-01T11:17:45;51.17;;;16.38;;
65377;SDS011;51982;51.042;13.806;2022-12-01T11:25:58;51.35;;;16.83;;
65377;SDS011;51982;51.042;13.806;2022-12-01T11:28:28;59.80;;;18.27;;
65377;SDS011;51982;51.042;13.806;2022-12-01T11:30:55;55.72;;;17.75;;
65377;SDS011;51982;51.042;13.806;2022-12-01T11:33:23;56.50;;;17.23;;
65377;SDS011;51982;51.042;13.806;2022-12-01T11:35:49;59.95;;;18.88;;
65377;SDS011;51982;51.042;13.806;2022-12-01T11:38:22;50.97;;;16.02;;
65377;SDS011;51982;51.042;13.806;2022-12-01T11:40:52;52.72;;;17.00;;
65377;SDS011;51982;51.042;13.806;2022-12-01T11:43:31;54.33;;;17.80;;
65377;SDS011;51982;51.042;13.806;2022-12-01T11:45:58;51.10;;;16.70;;
65377;SDS011;51982;51.042;13.806;2022-12-01T11:48:28;51.65;;;17.48;;
65377;SDS011;51982;51.042;13.806;2022-12-01T11:51:08;51.75;;;17.00;;
65377;SDS011;51982;51.042;13.806;2022-12-01T11:53:48;52.22;;;17.17;;
65377;SDS011;51982;51.042;13.806;2022-12-01T11:56:20;48.55;;;14.73;;
65377;SDS011;51982;51.042;13.806;2022-12-01T11:58:48;51.67;;;16.50;;
65377;SDS011;51982;51.042;13.806;2022-12-01T12:01:27;48.40;;;16.58;;
65377;SDS011;51982;51.042;13.806;2022-12-01T12:07:07;46.58;;;15.55;;
65377;SDS011;51982;51.042;13.806;2022-12-01T12:15:31;46.20;;;15.00;;
65377;SDS011;51982;51.042;13.806;2022-12-01T12:23:46;48.58;;;16.52;;
65377;SDS011;51982;51.042;13.806;2022-12-01T12:26:20;44.90;;;15.57;;
65377;SDS011;51982;51.042;13.806;2022-12-01T12:36:54;26.90;;;10.75;;
65377;SDS011;51982;51.042;13.806;2022-12-01T12:48:20;41.70;;;14.88;;
65377;SDS011;51982;51.042;13.806;2022-12-01T12:55:57;38.08;;;12.73;;
65377;SDS011;51982;51.042;13.806;2022-12-01T12:58:28;38.13;;;14.63;;
65377;SDS011;51982;51.042;13.806;2022-12-01T13:06:31;48.60;;;15.60;;
65377;SDS011;51982;51.042;13.806;2022-12-01T13:09:06;41.75;;;15.32;;
65377;SDS011;51982;51.042;13.806;2022-12-01T13:11:42;45.00;;;16.33;;
65377;SDS011;51982;51.042;13.806;2022-12-01T13:14:27;56.35;;;17.60;;
65377;SDS011;51982;51.042;13.806;2022-12-01T13:19:32;42.75;;;14.32;;
65377;SDS011;51982;51.042;13.806;2022-12-01T13:22:00;42.00;;;14.68;;
65377;SDS011;51982;51.042;13.806;2022-12-01T13:24:27;44.97;;;15.45;;
65377;SDS011;51982;51.042;13.806;2022-12-01T13:26:59;55.97;;;16.77;;
65377;SDS011;51982;51.042;13.806;2022-12-01T13:29:38;47.47;;;16.83;;
65377;SDS011;51982;51.042;13.806;2022-12-01T13:32:25;43.60;;;14.82;;
65377;SDS011;51982;51.042;13.806;2022-12-01T13:37:43;49.03;;;16.85;;
65377;SDS011;51982;51.042;13.806;2022-12-01T13:40:19;44.67;;;16.70;;
65377;SDS011;51982;51.042;13.806;2022-12-01T13:42:52;43.38;;;16.98;;
65377;SDS011;51982;51.042;13.806;2022-12-01T13:45:35;43.88;;;15.68;;
65377;SDS011;51982;51.042;13.806;2022-12-01T13:48:05;47.28;;;15.88;;
65377;SDS011;51982;51.042;13.806;2022-12-01T13:53:25;47.33;;;15.77;;
65377;SDS011;51982;51.042;13.806;2022-12-01T13:55:56;42.05;;;15.85;;
65377;SDS011;51982;51.042;13.806;2022-12-01T13:58:23;42.97;;;15.95;;
65377;SDS011;51982;51.042;13.806;2022-12-01T14:04:45;44.03;;;17.30;;
65377;SDS011;51982;51.042;13.806;2022-12-01T14:09:17;47.67;;;15.45;;
65377;SDS011;51982;51.042;13.806;2022-12-01T14:14:38;43.15;;;13.98;;
65377;SDS011;51982;51.042;13.806;2022-12-01T14:17:27;45.15;;;15.25;;
65377;SDS011;51982;51.042;13.806;2022-12-01T14:19:55;45.60;;;15.90;;
65377;SDS011;51982;51.042;13.806;2022-12-01T14:22:33;42.08;;;15.68;;
65377;SDS011;51982;51.042;13.806;2022-12-01T14:25:03;49.80;;;16.48;;
65377;SDS011;51982;51.042;13.806;2022-12-01T14:27:36;45.20;;;15.02;;
65377;SDS011;51982;51.042;13.806;2022-12-01T14:38:48;50.92;;;16.80;;
65377;SDS011;51982;51.042;13.806;2022-12-01T14:41:20;58.03;;;18.35;;
65377;SDS011;51982;51.042;13.806;2022-12-01T14:44:00;50.08;;;17.55;;
65377;SDS011;51982;51.042;13.806;2022-12-01T14:46:53;48.72;;;16.92;;
65377;SDS011;51982;51.042;13.806;2022-12-01T14:49:22;58.85;;;18.08;;
65377;SDS011;51982;51.042;13.806;2022-12-01T14:51:52;54.35;;;18.83;;
65377;SDS011;51982;51.042;13.806;2022-12-01T14:54:27;51.90;;;16.90;;
65377;SDS011;51982;51.042;13.806;2022-12-01T14:57:03;40.50;;;14.38;;
65377;SDS011;51982;51.042;13.806;2022-12-01T14:59:28;45.80;;;16.70;;
65377;SDS011;51982;51.042;13.806;2022-12-01T15:01:56;50.55;;;16.13;;
65377;SDS011;51982;51.042;13.806;2022-12-01T15:04:32;43.90;;;16.35;;
65377;SDS011;51982;51.042;13.806;2022-12-01T15:07:00;46.45;;;17.60;;
65377;SDS011;51982;51.042;13.806;2022-12-01T15:09:25;45.40;;;15.30;;
65377;SDS011;51982;51.042;13.806;2022-12-01T15:11:57;43.75;;;15.13;;
65377;SDS011;51982;51.042;13.806;2022-12-01T15:16:55;41.67;;;15.45;;
65377;SDS011;51982;51.042;13.806;2022-12-01T15:19:41;42.83;;;15.45;;
65377;SDS011;51982;51.042;13.806;2022-12-01T15:22:11;39.20;;;15.20;;
65377;SDS011;51982;51.042;13.806;2022-12-01T15:24:38;49.42;;;16.02;;
65377;SDS011;51982;51.042;13.806;2022-12-01T15:27:19;48.72;;;17.00;;
65377;SDS011;51982;51.042;13.806;2022-12-01T15:29:50;39.78;;;14.85;;
65377;SDS011;51982;51.042;13.806;2022-12-01T15:32:16;47.45;;;17.88;;
65377;SDS011;51982;51.042;13.806;2022-12-01T15:34:49;45.78;;;14.93;;
65377;SDS011;51982;51.042;13.806;2022-12-01T15:37:17;49.25;;;16.55;;
65377;SDS011;51982;51.042;13.806;2022-12-01T15:39:46;44.97;;;15.65;;
65377;SDS011;51982;51.042;13.806;2022-12-01T15:42:25;40.65;;;15.57;;
65377;SDS011;51982;51.042;13.806;2022-12-01T15:45:01;51.00;;;17.02;;
65377;SDS011;51982;51.042;13.806;2022-12-01T15:47:50;43.97;;;15.40;;
65377;SDS011;51982;51.042;13.806;2022-12-01T15:50:27;40.97;;;15.82;;
65377;SDS011;51982;51.042;13.806;2022-12-01T15:52:57;34.13;;;13.90;;
65377;SDS011;51982;51.042;13.806;2022-12-01T15:55:26;46.58;;;15.48;;
65377;SDS011;51982;51.042;13.806;2022-12-01T15:57:54;48.03;;;15.50;;
65377;SDS011;51982;51.042;13.806;2022-12-01T16:00:20;38.45;;;14.18;;
65377;SDS011;51982;51.042;13.806;2022-12-01T16:02:56;42.20;;;14.70;;
65377;SDS011;51982;51.042;13.806;2022-12-01T16:05:27;31.73;;;11.40;;
65377;SDS011;51982;51.042;13.806;2022-12-01T16:07:56;47.13;;;16.08;;
65377;SDS011;51982;51.042;13.806;2022-12-01T16:10:36;33.58;;;13.90;;
65377;SDS011;51982;51.042;13.806;2022-12-01T16:16:20;40.70;;;14.15;;
65377;SDS011;51982;51.042;13.806;2022-12-01T16:18:54;32.63;;;12.35;;
65377;SDS011;51982;51.042;13.806;2022-12-01T16:21:21;37.42;;;13.95;;